Time;durP1;ratioP1;P1;durP2;ratioP2;P2;SDS_P1;SDS_P2;PMS_P1;PMS_P2;Temp;Humidity;BMP_temperature;BMP_pressure;BME280_temperature;BME280_humidity;BME280_pressure;Samples;Min_cycle;Max_cycle;Signal;HPM_P1;HPM_P2
2023/01/04 00:00:21;;;;;;;;;;;3.20;99.90;;;2.38;100.00;98459.22;5014645;28;19968;-39
2023/01/04 00:02:47;;;;;;;;;;;3.20;99.90;;;2.36;100.00;98458.34;5006770;28;20385;-38
2023/01/04 00:05:13;;;;;;;;;;;3.20;99.90;;;2.30;100.00;98463.47;4997496;28;19917;-39
2023/01/04 00:07:38;;;;;;;;;;;3.10;99.90;;;2.28;100.00;98452.16;5009856;28;19921;-39
2023/01/04 00:10:04;;;;;;;;;;;3.10;99.90;;;2.13;100.00;98437.22;5010336;28;20594;-39
2023/01/04 00:12:30;;;;;;;;;;;3.00;99.90;;;2.18;100.00;98450.28;5014242;28;19917;-39
2023/01/04 00:14:55;;;;;;;;;;;3.00;99.90;;;2.11;100.00;98441.53;5006065;28;19928;-39
2023/01/04 00:17:21;;;;;;;;;;;3.00;99.90;;;2.08;100.00;98450.19;5012310;28;19924;-39
2023/01/04 00:19:46;;;;;;;;;;;2.90;99.90;;;2.01;100.00;98445.75;5012087;28;19921;-39
2023/01/04 00:22:12;;;;;;;;;;;2.90;99.90;;;2.03;100.00;98441.44;5008780;28;20582;-39
2023/01/04 00:24:38;;;;;;;;;;;2.80;99.90;;;1.90;100.00;98423.88;5013502;28;19925;-39
2023/01/04 00:27:04;;;;;;;;;;;2.90;99.90;;;1.78;100.00;98388.19;5009968;28;20499;-39
2023/01/04 00:29:30;;;;;;;;;;;2.80;99.90;;;1.90;100.00;98401.38;5001648;28;19917;-39
2023/01/04 00:31:56;;;;;;;;;;;2.80;99.90;;;2.05;100.00;98418.91;5002531;28;19995;-39
2023/01/04 00:34:21;;;;;;;;;;;2.90;99.90;;;2.05;100.00;98403.28;5006208;28;20272;-38
2023/01/04 00:36:47;;;;;;;;;;;2.80;99.90;;;1.99;100.00;98399.72;5012352;28;19948;-39
2023/01/04 00:39:14;;;;;;;;;;;2.80;99.90;;;2.00;100.00;98399.75;5015820;28;20404;-38
2023/01/04 00:41:51;;;;;;;;;;;2.80;99.90;;;1.96;100.00;98395.38;5015135;28;20461;-38
2023/01/04 00:44:16;;;;;;;;;;;2.80;99.90;;;1.96;100.00;98387.56;5013760;28;20289;-38
2023/01/04 00:46:42;;;;;;;;;;;2.70;99.90;;;1.86;100.00;98376.13;5013018;28;19921;-38
2023/01/04 00:49:09;;;;;;;;;;;2.80;99.90;;;1.93;100.00;98382.31;5010137;28;20225;-38
2023/01/04 00:51:36;;;;;;;;;;;2.70;99.90;;;1.89;100.00;98377.91;5016685;28;19917;-39
2023/01/04 00:54:06;;;;;;;;;;;2.70;99.90;;;1.89;100.00;98378.78;5018677;28;19920;-38
2023/01/04 00:56:33;;;;;;;;;;;2.70;99.90;;;1.83;100.00;98383.91;5016285;28;19921;-38
2023/01/04 00:59:00;;;;;;;;;;;2.70;99.90;;;1.78;100.00;98379.50;5007997;28;19921;-38
2023/01/04 01:01:26;;;;;;;;;;;2.60;99.90;;;1.77;100.00;98373.41;5012452;28;20011;-39
2023/01/04 01:03:57;;;;;;;;;;;2.60;99.90;;;1.83;100.00;98372.63;5010356;28;19917;-39
2023/01/04 01:06:24;;;;;;;;;;;2.60;99.90;;;1.83;100.00;98380.41;5018470;28;20209;-39
2023/01/04 01:08:51;;;;;;;;;;;2.60;99.90;;;1.83;100.00;98388.22;5002895;28;19921;-39
2023/01/04 01:11:26;;;;;;;;;;;2.70;99.90;;;1.76;100.00;98376.00;5012081;28;19921;-39
2023/01/04 01:13:52;;;;;;;;;;;2.60;99.90;;;1.80;100.00;98389.06;4991412;28;20300;-39
2023/01/04 01:16:20;;;;;;;;;;;2.60;99.90;;;1.81;100.00;98384.72;5013688;28;19924;-39
2023/01/04 01:18:46;;;;;;;;;;;2.70;99.90;;;1.76;100.00;98376.88;5006583;28;20459;-39
2023/01/04 01:21:20;;;;;;;;;;;2.70;99.90;;;1.78;100.00;98374.31;5012882;28;19933;-39
2023/01/04 01:23:46;;;;;;;;;;;2.60;99.90;;;1.74;100.00;98386.38;5010510;28;19917;-39
2023/01/04 01:26:14;;;;;;;;;;;2.60;99.90;;;1.62;100.00;98368.88;5010875;28;19975;-39
2023/01/04 01:28:41;;;;;;;;;;;2.60;99.90;;;1.74;100.00;98388.97;5015904;28;20393;-39
2023/01/04 01:31:08;;;;;;;;;;;2.60;99.90;;;1.73;100.00;98397.66;5011126;28;20362;-39
2023/01/04 01:33:38;;;;;;;;;;;2.60;99.90;;;1.69;100.00;98395.88;5011264;28;20357;-39
2023/01/04 01:36:04;;;;;;;;;;;2.60;99.90;;;1.64;100.00;98392.31;5013331;28;19921;-39
2023/01/04 01:38:29;;;;;;;;;;;2.50;99.90;;;1.47;100.00;98366.94;5021285;28;19947;-39
2023/01/04 01:40:55;;;;;;;;;;;2.50;99.90;;;1.60;100.00;98391.41;5019342;28;20373;-39
2023/01/04 01:43:42;;;;;;;;;;;2.50;99.90;;;1.59;100.00;98405.22;5015896;28;19917;-39
2023/01/04 01:46:08;;;;;;;;;;;2.50;99.90;;;1.59;100.00;98409.56;5009760;28;19932;-39
2023/01/04 01:48:34;;;;;;;;;;;2.40;99.90;;;1.51;100.00;98406.88;5018136;28;19921;-39
2023/01/04 01:51:01;;;;;;;;;;;2.40;99.90;;;1.52;100.00;98412.06;5016123;28;20205;-39
2023/01/04 01:53:29;;;;;;;;;;;2.40;99.90;;;1.48;100.00;98404.22;4994532;28;21225;-39
2023/01/04 01:55:55;;;;;;;;;;;2.40;99.90;;;1.46;100.00;98387.72;4983573;28;19975;-39
2023/01/04 01:58:25;;;;;;;;;;;2.30;99.90;;;1.50;100.00;98397.31;4996873;28;19913;-39
2023/01/04 02:00:51;;;;;;;;;;;2.30;99.90;;;1.43;100.00;98385.06;5015237;28;19921;-39
2023/01/04 02:03:42;;;;;;;;;;;2.30;99.90;;;1.47;100.00;98395.53;5017078;28;19982;-39
2023/01/04 02:06:11;;;;;;;;;;;2.30;99.90;;;1.48;100.00;98388.59;5014311;28;19932;-39
2023/01/04 02:08:39;;;;;;;;;;;2.30;99.90;;;1.49;100.00;98382.53;5017028;28;20019;-39
2023/01/04 02:11:05;;;;;;;;;;;2.30;99.90;;;1.54;100.00;98391.28;5003796;28;20424;-39
2023/01/04 02:16:43;;;;;;;;;;;2.40;99.90;;;1.74;100.00;98382.91;5012820;28;19928;-39
2023/01/04 02:19:27;;;;;;;;;;;2.40;99.90;;;1.80;100.00;98386.47;4979276;28;20341;-39
2023/01/04 02:22:30;;;;;;;;;;;2.60;99.90;;;1.83;100.00;98378.72;5036453;23;19939;-47
2023/01/04 02:25:27;;;;;;;;;;;2.60;99.90;;;1.83;100.00;98375.22;5059288;28;19942;-47
2023/01/04 02:28:07;;;;;;;;;;;2.60;99.90;;;1.78;100.00;98369.97;5065015;28;19928;-47
2023/01/04 02:30:58;;;;;;;;;;;2.60;99.90;;;1.79;100.00;98368.25;5055100;28;19916;-46
2023/01/04 02:33:26;;;;;;;;;;;2.60;99.90;;;1.77;100.00;98362.16;5075671;28;19922;-49
2023/01/04 02:35:57;;;;;;;;;;;2.60;99.90;;;1.76;100.00;98361.28;5070960;28;19922;-52
2023/01/04 02:38:51;;;;;;;;;;;2.60;99.90;;;1.75;100.00;98362.13;5081610;28;20467;-46
2023/01/04 02:41:30;;;;;;;;;;;2.60;99.90;;;1.74;100.00;98356.91;5077568;28;20007;-49
2023/01/04 02:47:12;;;;;;;;;;;2.60;99.90;;;1.76;100.00;98358.69;5079039;28;19926;-49
2023/01/04 02:52:41;;;;;;;;;;;2.60;99.90;;;1.74;100.00;98346.50;5031325;28;20016;-50
2023/01/04 02:55:07;;;;;;;;;;;2.50;99.90;;;1.71;100.00;98343.00;5030559;28;20455;-52
2023/01/04 02:57:53;;;;;;;;;;;2.60;99.90;;;1.67;100.00;98346.44;5054837;28;19924;-47
2023/01/04 03:06:51;;;;;;;;;;;2.40;99.90;;;1.53;100.00;98324.56;5070341;28;19927;-48
2023/01/04 03:09:26;;;;;;;;;;;2.40;99.90;;;1.56;100.00;98329.78;5075563;28;20371;-49
2023/01/04 03:14:46;;;;;;;;;;;2.40;99.90;;;1.53;100.00;98314.16;5077130;28;19931;-50
2023/01/04 03:17:13;;;;;;;;;;;2.40;99.90;;;1.57;100.00;98317.69;5072973;28;19916;-51
2023/01/04 03:19:53;;;;;;;;;;;2.40;99.90;;;1.64;100.00;98304.75;5093889;27;19930;-50
2023/01/04 03:37:08;;;;;;;;;;;2.50;99.90;;;1.69;100.00;98287.50;5070705;28;19931;-47
2023/01/04 03:48:51;;;;;;;;;;;2.60;99.90;;;1.74;100.00;98300.53;5068814;28;20436;-46
2023/01/04 03:51:22;;;;;;;;;;;2.60;99.90;;;1.62;100.00;98266.59;5075161;28;19956;-47
2023/01/04 03:54:05;;;;;;;;;;;2.60;99.90;;;1.83;100.00;98298.09;5069129;28;20185;-46
2023/01/04 03:56:32;;;;;;;;;;;2.70;99.90;;;1.94;100.00;98287.81;5069057;28;20363;-48
2023/01/04 03:58:58;;;;;;;;;;;2.70;99.90;;;1.97;100.00;98271.34;5065858;28;20058;-46
2023/01/04 04:01:25;;;;;;;;;;;2.80;99.90;;;2.10;100.00;98276.69;5073458;28;20007;-46
2023/01/04 04:09:19;;;;;;;;;;;3.20;99.90;;;2.63;100.00;98283.28;5072509;28;20053;-48
2023/01/04 04:11:45;;;;;;;;;;;3.40;99.90;;;2.75;100.00;98279.91;5074943;28;19941;-46
2023/01/04 04:14:10;;;;;;;;;;;3.50;99.90;;;2.84;100.00;98273.91;5070107;28;20084;-46
2023/01/04 04:16:36;;;;;;;;;;;3.60;99.90;;;2.91;100.00;98278.31;5071889;28;20016;-45
2023/01/04 04:19:02;;;;;;;;;;;3.70;99.90;;;2.99;100.00;98279.22;5072998;28;20010;-49
2023/01/04 04:21:27;;;;;;;;;;;3.70;99.90;;;3.03;100.00;98272.28;5065085;28;19927;-46
2023/01/04 04:23:54;;;;;;;;;;;3.80;99.90;;;3.07;100.00;98274.09;5074821;28;20254;-46
2023/01/04 04:26:20;;;;;;;;;;;3.80;99.90;;;3.13;100.00;98274.13;5074898;28;19924;-46
2023/01/04 04:28:45;;;;;;;;;;;3.90;99.90;;;3.18;100.00;98271.56;5068581;28;19981;-46
2023/01/04 04:31:11;;;;;;;;;;;3.90;99.90;;;3.23;100.00;98265.50;5069046;28;19924;-46
2023/01/04 04:33:37;;;;;;;;;;;4.00;99.90;;;3.24;100.00;98268.97;5069854;28;19924;-47
2023/01/04 04:36:03;;;;;;;;;;;4.00;99.90;;;3.24;100.00;98254.19;5068333;28;19974;-47
2023/01/04 04:38:29;;;;;;;;;;;4.00;99.90;;;3.29;100.00;98262.06;5073659;28;20280;-46
2023/01/04 04:43:38;;;;;;;;;;;4.10;99.90;;;3.36;100.00;98262.97;5070464;28;20164;-47
2023/01/04 04:46:04;;;;;;;;;;;4.10;99.90;;;3.39;100.00;98258.63;5069726;28;20366;-46
2023/01/04 04:48:30;;;;;;;;;;;4.20;99.90;;;3.42;100.00;98247.34;5070996;28;19921;-49
2023/01/04 04:50:55;;;;;;;;;;;4.20;99.90;;;3.47;100.00;98261.28;5071112;28;19931;-50
2023/01/04 04:53:21;;;;;;;;;;;4.20;99.90;;;3.48;100.00;98247.34;5072493;28;20026;-49
2023/01/04 04:55:49;;;;;;;;;;;4.30;99.90;;;3.52;100.00;98248.28;5073215;28;19973;-47
2023/01/04 04:58:15;;;;;;;;;;;4.30;99.90;;;3.57;100.00;98249.16;5073700;28;19928;-47
2023/01/04 05:00:41;;;;;;;;;;;4.40;99.90;;;3.60;100.00;98239.59;5072386;28;19924;-47
2023/01/04 05:03:06;;;;;;;;;;;4.40;99.90;;;3.61;100.00;98233.53;5068655;28;19959;-45
2023/01/04 05:05:32;;;;;;;;;;;4.40;99.90;;;3.67;100.00;98243.09;5064709;28;20501;-42
2023/01/04 05:07:57;;;;;;;;;;;4.50;99.90;;;3.72;100.00;98241.41;5060326;28;19982;-47
2023/01/04 05:10:23;;;;;;;;;;;4.50;99.90;;;3.73;100.00;98235.31;5077702;28;19966;-43
2023/01/04 05:13:01;;;;;;;;;;;4.50;99.90;;;3.82;100.00;98242.28;5083729;28;19916;-43
2023/01/04 05:15:28;;;;;;;;;;;4.60;99.90;;;3.86;100.00;98238.84;5080602;28;19930;-43
2023/01/04 05:17:53;;;;;;;;;;;4.60;99.90;;;3.90;100.00;98237.13;5079808;28;19931;-43
2023/01/04 05:20:19;;;;;;;;;;;4.70;99.90;;;3.90;100.00;98235.38;5081249;28;19920;-43
2023/01/04 05:22:45;;;;;;;;;;;4.70;99.90;;;3.97;100.00;98247.56;5073350;28;19942;-45
2023/01/04 05:25:11;;;;;;;;;;;4.80;99.90;;;4.03;100.00;98241.50;5083232;28;20338;-45
2023/01/04 05:27:36;;;;;;;;;;;4.80;99.90;;;4.11;100.00;98254.56;5080394;28;20043;-44
2023/01/04 05:32:48;;;;;;;;;;;4.90;99.90;;;4.22;100.00;98247.63;5077151;28;19923;-45
2023/01/04 05:35:13;;;;;;;;;;;5.00;99.90;;;4.28;100.00;98244.16;5079069;28;19924;-44
2023/01/04 05:37:39;;;;;;;;;;;5.00;99.90;;;4.27;100.00;98227.63;5073671;28;20035;-44
2023/01/04 05:40:05;;;;;;;;;;;5.10;99.90;;;4.37;100.00;98233.72;5078482;28;19923;-46
2023/01/04 05:42:30;;;;;;;;;;;5.10;99.90;;;4.43;100.00;98240.69;5081647;28;20106;-47
2023/01/04 05:44:57;;;;;;;;;;;5.10;99.90;;;4.46;100.00;98243.31;5079461;28;19931;-48
2023/01/04 05:47:24;;;;;;;;;;;5.20;99.90;;;4.41;100.00;98227.63;5081022;28;19928;-47
2023/01/04 05:49:50;;;;;;;;;;;5.20;99.90;;;4.52;100.00;98244.19;5078946;28;19930;-47
2023/01/04 05:52:15;;;;;;;;;;;5.20;99.90;;;4.56;100.00;98242.47;5081473;28;19927;-46
2023/01/04 05:54:41;;;;;;;;;;;5.30;99.90;;;4.52;100.00;98222.41;5078532;28;19916;-48
2023/01/04 05:57:07;;;;;;;;;;;5.30;99.90;;;4.62;100.00;98237.22;5078917;28;19916;-46
2023/01/04 05:59:33;;;;;;;;;;;5.40;99.90;;;4.61;100.00;98227.63;5080941;28;20262;-51
2023/01/04 06:01:59;;;;;;;;;;;5.40;99.90;;;4.63;100.00;98225.91;5076011;28;19916;-47
2023/01/04 06:04:24;;;;;;;;;;;5.40;99.90;;;4.69;100.00;98223.28;5063340;28;20257;-47
2023/01/04 06:06:50;;;;;;;;;;;5.40;99.90;;;4.71;100.00;98223.28;5074035;28;20358;-45
2023/01/04 06:09:16;;;;;;;;;;;5.40;99.90;;;4.76;100.00;98221.53;5078054;28;19916;-42
2023/01/04 06:11:41;;;;;;;;;;;5.50;99.90;;;4.75;100.00;98218.03;5082194;28;19920;-42
2023/01/04 06:14:07;;;;;;;;;;;5.50;99.90;;;4.81;100.00;98219.81;5079356;28;19920;-49
2023/01/04 06:16:32;;;;;;;;;;;5.60;99.90;;;4.85;100.00;98223.28;5078954;28;19923;-46
2023/01/04 06:18:58;;;;;;;;;;;5.60;99.90;;;4.87;100.00;98217.19;5073333;28;19924;-51
2023/01/04 06:21:26;;;;;;;;;;;5.60;99.90;;;4.93;100.00;98211.94;5071415;28;21126;-45
2023/01/04 06:23:52;;;;;;;;;;;5.60;99.90;;;4.98;100.00;98219.78;5074832;28;20329;-48
2023/01/04 06:26:18;;;;;;;;;;;5.70;99.90;;;5.00;100.00;98223.25;5075053;28;19974;-50
2023/01/04 06:28:44;;;;;;;;;;;5.70;99.90;;;4.93;100.00;98208.44;5074306;28;20002;-48
2023/01/04 06:31:11;;;;;;;;;;;5.70;99.90;;;5.10;100.00;98219.75;5080988;28;19973;-47
2023/01/04 06:33:38;;;;;;;;;;;5.80;99.90;;;5.15;100.00;98222.34;5081296;28;19920;-48
2023/01/04 06:36:04;;;;;;;;;;;5.90;99.90;;;5.20;100.00;98223.22;5076844;28;19916;-48
2023/01/04 06:38:30;;;;;;;;;;;5.90;99.90;;;5.23;100.00;98225.81;5076761;28;19924;-47
2023/01/04 06:40:55;;;;;;;;;;;5.90;99.90;;;5.25;100.00;98217.97;5077873;28;19947;-47
2023/01/04 06:43:21;;;;;;;;;;;6.00;99.90;;;5.29;100.00;98217.09;5073695;28;19920;-48
2023/01/04 06:45:46;;;;;;;;;;;6.00;99.90;;;5.37;100.00;98230.16;5076731;28;19924;-47
2023/01/04 06:48:12;;;;;;;;;;;6.10;99.90;;;5.38;100.00;98218.81;5079294;28;21189;-47
2023/01/04 06:50:38;;;;;;;;;;;6.10;99.90;;;5.39;100.00;98225.78;5076250;28;19973;-49
2023/01/04 06:53:03;;;;;;;;;;;6.10;99.90;;;5.42;100.00;98231.88;5076888;28;19920;-47
2023/01/04 06:55:29;;;;;;;;;;;6.10;99.90;;;5.46;100.00;98227.53;5080822;28;19920;-48
2023/01/04 06:57:55;;;;;;;;;;;6.20;99.90;;;5.47;100.00;98218.78;5070373;28;19924;-45
2023/01/04 07:00:21;;;;;;;;;;;6.20;99.90;;;5.43;100.00;98207.44;5069576;28;19924;-49
2023/01/04 07:02:46;;;;;;;;;;;6.20;99.90;;;5.35;100.00;98204.88;5071003;28;19977;-48
2023/01/04 07:05:12;;;;;;;;;;;6.20;99.90;;;5.54;100.00;98226.63;5069172;28;19924;-46
2023/01/04 07:07:38;;;;;;;;;;;6.30;99.90;;;5.61;100.00;98224.81;5068946;28;20380;-47
2023/01/04 07:10:03;;;;;;;;;;;6.30;99.90;;;5.62;100.00;98221.34;5075582;28;19916;-45
2023/01/04 07:12:29;;;;;;;;;;;6.30;99.90;;;5.62;100.00;98223.97;5077173;28;19915;-48
2023/01/04 07:14:55;;;;;;;;;;;6.30;99.90;;;5.59;100.00;98208.28;5079386;28;20533;-47
2023/01/04 07:17:20;;;;;;;;;;;6.30;99.90;;;5.64;100.00;98210.88;5071394;28;20400;-45
2023/01/04 07:19:46;;;;;;;;;;;6.30;99.90;;;5.65;100.00;98212.59;5070045;28;19955;-45
2023/01/04 07:22:11;;;;;;;;;;;6.30;99.90;;;5.69;100.00;98222.19;5069808;28;19916;-47
2023/01/04 07:24:37;;;;;;;;;;;6.40;99.90;;;5.68;100.00;98215.22;5068726;28;19981;-48
2023/01/04 07:27:03;;;;;;;;;;;6.40;99.90;;;5.70;100.00;98203.00;5071172;28;20350;-48
2023/01/04 07:29:28;;;;;;;;;;;6.40;99.90;;;5.72;100.00;98209.97;5072535;28;19927;-49
2023/01/04 07:31:55;;;;;;;;;;;6.40;99.90;;;5.81;100.00;98209.03;5077433;28;20291;-48
2023/01/04 07:34:23;;;;;;;;;;;6.40;99.90;;;5.73;100.00;98214.31;5071595;28;19924;-45
2023/01/04 07:36:49;;;;;;;;;;;6.50;99.90;;;5.74;100.00;98216.06;5069881;28;19920;-49
2023/01/04 07:39:16;;;;;;;;;;;6.40;99.90;;;5.72;100.00;98214.31;5066364;28;20125;-51
2023/01/04 07:41:42;;;;;;;;;;;6.40;99.90;;;5.67;100.00;98200.38;5070491;28;20101;-51
2023/01/04 07:44:09;;;;;;;;;;;6.40;99.90;;;5.62;100.00;98194.31;5071007;28;20356;-51
2023/01/04 07:46:35;;;;;;;;;;;6.30;99.90;;;5.59;100.00;98195.19;5069229;28;20447;-51
2023/01/04 07:49:01;;;;;;;;;;;6.30;99.90;;;5.49;100.00;98170.81;5070240;28;19922;-48
2023/01/04 07:51:26;;;;;;;;;;;6.30;99.90;;;5.52;100.00;98183.00;5072274;28;19923;-49
2023/01/04 07:53:52;;;;;;;;;;;6.20;99.90;;;5.48;100.00;98183.91;5071831;28;19919;-52
2023/01/04 07:56:18;;;;;;;;;;;6.20;99.90;;;5.46;100.00;98180.44;5075761;28;20350;-54
2023/01/04 07:58:43;;;;;;;;;;;6.20;99.90;;;5.45;100.00;98178.66;5077018;28;19982;-51
2023/01/04 08:01:14;;;;;;;;;;;6.20;99.90;;;5.47;100.00;98179.53;5073570;28;19943;-50
2023/01/04 08:03:40;;;;;;;;;;;6.20;99.90;;;5.47;100.00;98177.81;5074208;28;20023;-51
2023/01/04 08:06:08;;;;;;;;;;;6.20;99.90;;;5.48;100.00;98174.28;5067800;28;19920;-51
2023/01/04 08:08:34;;;;;;;;;;;6.20;99.90;;;5.46;100.00;98176.06;5072899;28;19923;-50
2023/01/04 08:11:03;;;;;;;;;;;6.20;99.90;;;5.43;100.00;98160.38;5076476;28;20269;-53
2023/01/04 08:13:29;;;;;;;;;;;6.20;99.90;;;5.44;100.00;98156.88;5075179;28;19916;-52
2023/01/04 08:15:55;;;;;;;;;;;6.20;99.90;;;5.47;100.00;98159.50;5071312;28;19980;-49
2023/01/04 08:18:20;;;;;;;;;;;6.30;99.90;;;5.51;100.00;98155.13;5074674;28;19985;-53
2023/01/04 08:20:46;;;;;;;;;;;6.20;99.90;;;5.48;100.00;98163.84;5071699;28;19977;-51
2023/01/04 08:23:12;;;;;;;;;;;6.20;99.90;;;5.48;100.00;98145.53;5070713;22;21235;-41
2023/01/04 08:25:37;;;;;;;;;;;6.20;99.90;;;5.51;100.00;98137.66;5038243;28;19981;-43
2023/01/04 08:28:03;;;;;;;;;;;6.20;99.90;;;5.48;100.00;98148.13;5048551;28;19922;-42
2023/01/04 08:30:28;;;;;;;;;;;6.30;99.90;;;5.54;100.00;98148.13;5046188;28;20424;-40
2023/01/04 08:32:54;;;;;;;;;;;6.30;99.90;;;5.60;100.00;98149.84;5056480;28;19920;-42
2023/01/04 08:35:20;;;;;;;;;;;6.30;99.90;;;5.46;100.00;98139.44;5066666;28;20375;-44
2023/01/04 08:37:46;;;;;;;;;;;6.30;99.90;;;5.63;100.00;98156.78;5066393;28;20004;-41
2023/01/04 08:40:12;;;;;;;;;;;6.30;99.90;;;5.62;100.00;98150.69;5060127;28;19935;-43
2023/01/04 08:42:37;;;;;;;;;;;6.30;99.90;;;5.67;100.00;98141.06;5073036;28;19916;-43
2023/01/04 08:45:04;;;;;;;;;;;6.40;99.90;;;5.71;100.00;98144.53;5060841;28;20051;-42
2023/01/04 08:47:30;;;;;;;;;;;6.40;99.90;;;5.71;100.00;98124.47;5068373;28;20344;-41
2023/01/04 08:49:56;;;;;;;;;;;6.50;99.90;;;5.78;100.00;98117.44;5055390;28;19932;-41
2023/01/04 08:52:21;;;;;;;;;;;6.50;99.90;;;5.80;100.00;98110.47;5066267;28;23655;-41
2023/01/04 08:54:48;;;;;;;;;;;6.50;99.90;;;5.84;100.00;98111.31;5061522;28;20679;-42
2023/01/04 08:57:17;;;;;;;;;;;6.60;99.90;;;5.85;100.00;98108.69;5056904;28;19916;-43
2023/01/04 08:59:43;;;;;;;;;;;6.60;99.90;;;5.85;100.00;98095.59;5063293;28;20690;-41
2023/01/04 09:02:21;;;;;;;;;;;6.60;99.90;;;5.92;100.00;98101.63;5068687;28;19928;-43
2023/01/04 09:04:47;;;;;;;;;;;6.60;99.90;;;5.93;100.00;98109.47;5065719;28;20265;-41
2023/01/04 09:07:12;;;;;;;;;;;6.70;99.90;;;5.98;100.00;98112.13;5067069;28;19981;-41
2023/01/04 09:09:38;;;;;;;;;;;6.70;99.90;;;6.02;100.00;98119.06;5070079;28;19924;-42
2023/01/04 09:12:04;;;;;;;;;;;6.80;99.90;;;6.06;100.00;98118.16;5073006;28;19920;-40
2023/01/04 09:14:29;;;;;;;;;;;6.80;99.90;;;6.13;100.00;98116.34;5066844;28;20943;-43
2023/01/04 09:16:55;;;;;;;;;;;6.80;99.90;;;6.15;100.00;98119.81;5067559;28;19948;-45
2023/01/04 09:19:20;;;;;;;;;;;6.90;99.90;;;6.20;100.00;98118.03;5066186;28;20768;-43
2023/01/04 09:21:46;;;;;;;;;;;6.90;99.90;;;6.21;100.00;98113.66;5061439;28;19965;-45
2023/01/04 09:24:12;;;;;;;;;;;7.00;99.90;;;6.32;100.00;98117.09;5066178;28;20015;-44
2023/01/04 09:26:38;;;;;;;;;;;7.10;99.90;;;6.44;100.00;98116.09;5074357;28;19920;-43
2023/01/04 09:29:05;;;;;;;;;;;7.10;99.90;;;6.49;100.00;98109.06;5066472;28;20316;-46
2023/01/04 09:31:31;;;;;;;;;;;7.20;99.90;;;6.55;100.00;98131.72;5071147;28;19920;-43
2023/01/04 09:33:58;;;;;;;;;;;7.30;99.90;;;6.65;100.00;98142.09;5067352;28;21015;-44
2023/01/04 09:36:24;;;;;;;;;;;7.30;99.90;;;6.63;100.00;98125.53;5072365;28;19920;-42
2023/01/04 09:38:51;;;;;;;;;;;7.40;99.90;;;6.75;100.00;98128.91;5065622;28;19916;-45
2023/01/04 09:41:21;;;;;;;;;;;7.50;99.90;;;6.80;100.00;98134.97;5069862;28;19978;-45
2023/01/04 09:43:50;;;;;;;;;;;7.50;99.90;;;6.86;100.00;98148.03;5070939;28;20131;-48
2023/01/04 09:46:30;;;;;;;;;;;7.60;99.90;;;6.85;100.00;98138.41;5070603;28;20388;-47
2023/01/04 09:49:06;;;;;;;;;;;7.60;99.90;;;6.87;100.00;98131.41;5067266;28;19977;-46
2023/01/04 09:51:35;;;;;;;;;;;7.60;99.90;;;6.91;100.00;98141.00;5067033;28;19920;-44
2023/01/04 09:54:04;;;;;;;;;;;7.60;99.90;;;6.98;100.00;98140.06;5067625;28;19915;-48
2023/01/04 09:56:32;;;;;;;;;;;7.60;99.90;;;6.98;100.00;98133.91;5076392;28;20299;-45
2023/01/04 09:59:00;;;;;;;;;;;7.70;99.90;;;6.95;100.00;98119.09;5067734;28;20379;-42
2023/01/04 10:01:31;;;;;;;;;;;7.70;99.90;;;7.05;100.00;98136.47;5048228;28;19924;-45
2023/01/04 10:04:09;;;;;;;;;;;7.80;99.90;;;7.07;100.00;98115.47;5083216;28;20061;-42
2023/01/04 10:06:36;;;;;;;;;;;7.80;99.90;;;7.06;100.00;98105.84;5073088;28;19920;-43
2023/01/04 10:09:03;;;;;;;;;;;7.80;99.90;;;7.02;100.00;98110.28;5064424;28;23081;-40
2023/01/04 10:12:13;;;;;;;;;;;7.70;99.90;;;6.98;100.00;98099.81;5066371;28;19924;-42
2023/01/04 10:15:05;;;;;;;;;;;7.70;99.90;;;7.03;100.00;98098.91;5048664;28;19924;-42
2023/01/04 10:17:48;;;;;;;;;;;7.70;99.90;;;7.08;100.00;98102.31;5062963;28;19927;-41
2023/01/04 10:20:22;;;;;;;;;;;7.70;99.90;;;7.14;100.00;98087.41;5053841;28;19925;-45
2023/01/04 10:23:01;;;;;;;;;;;7.80;99.90;;;7.15;100.00;98089.16;5070106;28;20590;-46
2023/01/04 10:25:48;;;;;;;;;;;7.90;99.90;;;7.18;100.00;98076.84;5065776;28;19989;-45
2023/01/04 10:28:26;;;;;;;;;;;7.90;99.90;;;7.23;100.00;98080.31;5067843;28;20401;-45
2023/01/04 10:31:17;;;;;;;;;;;8.00;99.90;;;7.29;100.00;98094.22;5058057;28;19924;-45
2023/01/04 10:33:58;;;;;;;;;;;8.00;99.90;;;7.35;100.00;98097.63;5059447;28;19947;-44
2023/01/04 10:36:27;;;;;;;;;;;8.10;99.90;;;7.41;100.00;98083.56;5068947;28;19928;-43
2023/01/04 10:39:02;;;;;;;;;;;8.10;99.90;;;7.49;100.00;98084.31;5059348;28;20298;-42
2023/01/04 10:41:33;;;;;;;;;;;8.20;99.90;;;7.61;100.00;98075.44;5062745;28;19959;-42
2023/01/04 10:44:00;;;;;;;;;;;8.30;99.90;;;7.71;100.00;98082.25;5064798;28;19923;-43
2023/01/04 10:46:34;;;;;;;;;;;8.40;99.90;;;7.87;100.00;98072.41;5063026;28;19928;-42
2023/01/04 10:49:10;;;;;;;;;;;8.50;99.90;;;7.92;100.00;98046.06;5066042;28;20122;-42
2023/01/04 10:51:54;;;;;;;;;;;8.70;99.90;;;8.17;100.00;98065.78;5067710;28;19919;-42
2023/01/04 10:54:29;;;;;;;;;;;8.80;99.90;;;8.08;100.00;98050.19;5070180;28;19955;-48
2023/01/04 10:57:01;;;;;;;;;;;8.90;99.90;;;8.26;100.00;98059.50;5059588;28;19919;-46
2023/01/04 10:59:46;;;;;;;;;;;9.00;99.90;;;8.37;100.00;98069.84;5070903;28;19920;-44
2023/01/04 11:02:21;;;;;;;;;;;9.10;99.90;;;8.30;100.00;98060.31;5047202;28;20013;-46
2023/01/04 11:04:54;;;;;;;;;;;9.10;99.90;;;8.45;100.00;98069.72;5065557;28;19947;-43
2023/01/04 11:07:19;;;;;;;;;;;9.10;99.90;;;8.50;100.00;98060.88;5061727;28;19924;-44
2023/01/04 11:09:58;;;;;;;;;;;9.20;99.90;;;8.48;100.00;98065.28;5069470;28;19970;-42
2023/01/04 11:12:25;;;;;;;;;;;9.20;99.90;;;8.52;100.00;98053.81;5065980;28;19916;-42
2023/01/04 11:14:51;;;;;;;;;;;9.30;99.90;;;8.55;100.00;98059.03;5072947;28;19924;-42
2023/01/04 11:17:16;;;;;;;;;;;9.20;99.90;;;8.62;100.00;98048.41;5058041;28;20030;-42
2023/01/04 11:19:42;;;;;;;;;;;9.30;99.90;;;8.66;100.00;98042.19;5059379;28;19950;-43
2023/01/04 11:22:08;;;;;;;;;;;9.30;99.90;;;8.69;100.00;98042.13;5056948;28;20407;-43
2023/01/04 11:24:34;;;;;;;;;;;9.40;99.90;;;8.72;100.00;98044.69;5067601;28;20387;-43
2023/01/04 11:27:11;;;;;;;;;;;9.40;99.90;;;8.73;100.00;98038.53;5067849;28;19924;-42
2023/01/04 11:30:02;;;;;;;;;;;9.40;99.90;;;8.76;100.00;98030.59;5071475;28;19963;-44
2023/01/04 11:32:34;;;;;;;;;;;9.40;99.90;;;8.75;100.00;98028.84;5066287;28;20298;-43
2023/01/04 11:35:00;;;;;;;;;;;9.50;99.90;;;8.70;100.00;98001.78;5068696;28;20360;-43
2023/01/04 11:37:37;;;;;;;;;;;9.50;99.90;;;8.85;100.00;98021.66;5067387;28;19931;-42
2023/01/04 11:40:15;;;;;;;;;;;9.50;99.90;;;8.85;100.00;98025.16;5067402;28;20008;-43
2023/01/04 11:42:40;;;;;;;;;;;9.50;99.90;;;8.86;100.00;98012.88;5065051;28;19920;-44
2023/01/04 11:45:16;;;;;;;;;;;9.60;99.90;;;8.88;100.00;98013.69;5064419;28;19923;-45
2023/01/04 11:47:54;;;;;;;;;;;9.60;99.90;;;8.90;100.00;98007.53;5067583;28;19970;-43
2023/01/04 11:50:37;;;;;;;;;;;9.60;99.90;;;8.87;100.00;98025.13;5068763;28;19935;-44
2023/01/04 11:53:23;;;;;;;;;;;9.60;99.90;;;8.79;100.00;97997.22;5057675;23;19935;-46
2023/01/04 11:55:50;;;;;;;;;;;9.60;99.90;;;8.90;100.00;98010.16;5048155;28;21555;-44
2023/01/04 11:58:17;;;;;;;;;;;9.60;99.90;;;8.95;100.00;98005.66;5042103;28;19917;-45
2023/01/04 12:00:51;;;;;;;;;;;9.60;99.90;;;9.00;100.00;98010.81;5041284;28;19968;-46
2023/01/04 12:03:24;;;;;;;;;;;9.60;99.90;;;9.03;100.00;98023.06;5048707;28;19921;-44
2023/01/04 12:05:49;;;;;;;;;;;9.70;99.90;;;9.00;100.00;98023.13;5041840;28;19923;-44
2023/01/04 12:08:32;;;;;;;;;;;9.60;99.90;;;8.92;100.00;98018.88;5050904;28;20804;-46
2023/01/04 12:11:00;;;;;;;;;;;9.60;99.90;;;8.89;100.00;98020.69;5042810;28;19917;-46
2023/01/04 12:13:27;;;;;;;;;;;9.60;99.90;;;8.78;100.00;98013.88;5046996;28;19970;-44
2023/01/04 12:15:59;;;;;;;;;;;9.50;99.90;;;8.80;100.00;98005.97;5041442;28;19976;-44
2023/01/04 12:18:28;;;;;;;;;;;9.50;99.90;;;8.82;100.00;98011.19;5036837;28;20011;-49
2023/01/04 12:20:55;;;;;;;;;;;9.50;99.90;;;8.80;100.00;98008.59;5048072;28;20121;-45
2023/01/04 12:23:21;;;;;;;;;;;9.50;99.90;;;8.86;100.00;98010.22;5033342;28;19924;-46
2023/01/04 12:25:50;;;;;;;;;;;9.50;99.90;;;8.91;100.00;98003.97;5048803;28;20080;-45